Time;durP1;ratioP1;P1;durP2;ratioP2;P2;SDS_P1;SDS_P2;PMS_P1;PMS_P2;Temp;Humidity;BMP_temperature;BMP_pressure;BME280_temperature;BME280_humidity;BME280_pressure;Samples;Min_cycle;Max_cycle;Signal;HPM_P1;HPM_P2
2021/12/07 00:00:20;;;;;;;53.28;24.33;;;2.10;99.90;;;;;;5060151;28;20079;-68
2021/12/07 00:02:46;;;;;;;45.63;22.60;;;2.10;99.90;;;;;;5038983;28;20080;-67
2021/12/07 00:05:12;;;;;;;46.40;22.80;;;2.10;99.90;;;;;;5054674;28;20152;-67
2021/12/07 00:07:39;;;;;;;47.85;23.38;;;2.10;99.90;;;;;;5058914;28;20106;-68
2021/12/07 00:10:06;;;;;;;51.03;23.77;;;2.10;99.90;;;;;;5071562;28;20048;-67
2021/12/07 00:12:37;;;;;;;55.40;24.15;;;2.10;99.90;;;;;;5051443;28;20040;-66
2021/12/07 00:15:04;;;;;;;43.60;22.55;;;2.10;99.90;;;;;;5056901;28;20085;-67
2021/12/07 00:17:31;;;;;;;49.20;23.38;;;2.00;99.90;;;;;;5055407;28;20056;-67
2021/12/07 00:19:58;;;;;;;59.78;25.52;;;2.00;99.90;;;;;;5051379;28;20515;-68
2021/12/07 00:22:25;;;;;;;45.95;22.30;;;2.10;99.90;;;;;;5052911;28;20057;-68
2021/12/07 00:24:51;;;;;;;48.92;23.70;;;2.00;99.90;;;;;;5058571;28;20040;-67
2021/12/07 00:27:17;;;;;;;52.35;23.42;;;2.00;99.90;;;;;;5061696;28;20045;-67
2021/12/07 00:29:43;;;;;;;48.75;22.83;;;2.00;99.90;;;;;;5059233;28;20087;-66
2021/12/07 00:35:13;;;;;;;57.50;24.75;;;1.90;99.90;;;;;;5057624;28;20094;-67
2021/12/07 00:37:42;;;;;;;44.35;21.55;;;1.90;99.90;;;;;;5067641;28;20544;-67
2021/12/07 00:40:10;;;;;;;52.55;25.05;;;1.90;99.90;;;;;;5058583;28;20107;-66
2021/12/07 00:42:36;;;;;;;56.75;24.35;;;1.90;99.90;;;;;;5062227;28;20045;-67
2021/12/07 00:45:03;;;;;;;50.78;23.27;;;1.90;99.90;;;;;;5054932;28;20047;-67
2021/12/07 00:47:29;;;;;;;43.23;21.50;;;1.90;99.90;;;;;;5070165;28;20040;-67
2021/12/07 00:49:55;;;;;;;39.85;21.20;;;1.90;99.90;;;;;;5062718;28;20756;-68
2021/12/07 00:52:21;;;;;;;49.53;23.27;;;1.90;99.90;;;;;;5061574;28;20363;-67
2021/12/07 00:54:46;;;;;;;47.50;23.45;;;1.80;99.90;;;;;;5061565;28;20045;-68
2021/12/07 00:57:12;;;;;;;43.55;20.67;;;1.80;99.90;;;;;;5042097;28;20045;-68
2021/12/07 00:59:38;;;;;;;44.38;21.45;;;1.80;99.90;;;;;;5069078;28;20036;-68
2021/12/07 01:02:04;;;;;;;56.30;22.08;;;1.70;99.90;;;;;;5061240;28;20077;-69
2021/12/07 01:04:30;;;;;;;48.45;21.45;;;1.70;99.90;;;;;;5064200;28;20057;-68
2021/12/07 01:07:04;;;;;;;42.05;20.77;;;1.70;99.90;;;;;;5048497;28;20083;-68
2021/12/07 01:24:38;;;;;;;37.58;18.77;;;1.70;99.90;;;;;;5065269;28;20044;-68
2021/12/07 01:26:04;;;;;;;41.80;20.35;;;1.30;99.90;;;;;;5062473;28;20052;-67
2021/12/07 01:28:35;;;;;;;48.28;21.65;;;1.40;99.90;;;;;;5052722;28;20049;-67
2021/12/07 01:31:49;;;;;;;45.65;21.42;;;1.30;99.90;;;;;;5055339;28;20766;-68
2021/12/07 01:34:26;;;;;;;46.85;21.80;;;1.20;99.90;;;;;;5054796;28;20049;-68
2021/12/07 01:40:00;;;;;;;43.47;20.73;;;1.20;99.90;;;;;;5060110;28;20052;-68
2021/12/07 01:59:32;;;;;;;41.58;21.33;;;1.10;99.90;;;;;;5056876;28;20166;-67
2021/12/07 02:00:45;;;;;;;41.72;20.10;;;1.10;99.90;;;;;;5056352;28;20037;-68
2021/12/07 02:03:11;;;;;;;50.35;22.52;;;1.10;99.90;;;;;;5057412;28;20067;-67
2021/12/07 02:05:36;;;;;;;39.55;20.48;;;1.10;99.90;;;;;;5040893;28;20403;-68
2021/12/07 02:08:03;;;;;;;45.75;22.05;;;1.10;99.90;;;;;;5060977;28;20041;-68
2021/12/07 02:10:30;;;;;;;47.28;21.15;;;1.10;99.90;;;;;;5057307;28;20044;-67
2021/12/07 02:13:03;;;;;;;47.72;21.23;;;1.10;99.90;;;;;;5055830;28;20201;-68
2021/12/07 02:15:32;;;;;;;41.13;19.73;;;1.00;99.90;;;;;;5059718;28;20085;-68
2021/12/07 02:17:58;;;;;;;;;;;1.10;99.90;;;;;;5061300;28;20044;-67
2021/12/07 02:20:28;;;;;;;44.90;20.88;;;1.10;99.90;;;;;;5063340;28;19974;-68
2021/12/07 02:22:54;;;;;;;50.85;23.15;;;1.10;99.90;;;;;;5065245;28;20040;-67
2021/12/07 02:25:20;;;;;;;44.78;21.67;;;1.10;99.90;;;;;;5051485;28;20159;-67
2021/12/07 02:27:48;;;;;;;43.15;20.52;;;1.10;99.90;;;;;;5062869;28;20049;-67
2021/12/07 02:30:18;;;;;;;46.53;21.40;;;1.10;99.90;;;;;;5053647;28;20047;-68
2021/12/07 02:32:44;;;;;;;47.50;22.33;;;1.10;99.90;;;;;;5063565;28;20122;-67
2021/12/07 02:35:12;;;;;;;43.45;21.67;;;1.10;99.90;;;;;;5063947;28;20040;-67
2021/12/07 02:37:38;;;;;;;47.38;21.77;;;1.10;99.90;;;;;;5050074;28;20044;-67
2021/12/07 02:40:06;;;;;;;42.65;21.23;;;1.20;99.90;;;;;;5050745;28;20048;-67
2021/12/07 02:42:32;;;;;;;44.95;22.20;;;1.10;99.90;;;;;;5059507;28;20041;-67
2021/12/07 02:44:58;;;;;;;37.38;20.17;;;1.20;99.90;;;;;;5059239;28;20074;-67
2021/12/07 02:47:24;;;;;;;40.30;20.15;;;1.20;99.90;;;;;;5055579;28;20515;-69
2021/12/07 02:49:49;;;;;;;51.65;21.85;;;1.20;99.90;;;;;;5063466;28;20123;-68
2021/12/07 02:52:16;;;;;;;43.03;21.23;;;1.20;99.90;;;;;;5055580;28;20041;-68
2021/12/07 02:54:45;;;;;;;43.25;21.40;;;1.30;99.90;;;;;;5054849;28;20033;-68
2021/12/07 02:57:12;;;;;;;45.15;21.42;;;1.30;99.90;;;;;;5051939;28;20044;-66
2021/12/07 02:59:43;;;;;;;48.28;22.63;;;1.30;99.90;;;;;;5057485;28;20278;-68
2021/12/07 03:02:10;;;;;;;41.67;21.35;;;1.30;99.90;;;;;;5053564;28;20383;-68
2021/12/07 03:04:43;;;;;;;42.80;20.57;;;1.30;99.90;;;;;;5053223;28;20044;-68
2021/12/07 03:07:45;;;;;;;42.75;21.40;;;1.30;99.90;;;;;;5062104;28;20291;-68
2021/12/07 03:28:25;;;;;;;43.17;19.77;;;1.30;99.90;;;;;;5053207;28;20056;-67
2021/12/07 03:30:51;;;;;;;42.92;21.52;;;1.30;99.90;;;;;;5055210;28;20050;-68
2021/12/07 03:33:17;;;;;;;37.08;19.60;;;1.30;99.90;;;;;;5030836;28;20045;-68
2021/12/07 03:35:42;;;;;;;36.83;19.80;;;1.30;99.90;;;;;;5042981;28;20416;-68
2021/12/07 03:38:09;;;;;;;37.83;19.50;;;1.20;99.90;;;;;;5069445;28;20056;-68
2021/12/07 03:40:36;;;;;;;38.72;19.38;;;1.20;99.90;;;;;;5054824;28;20037;-68
2021/12/07 03:43:03;;;;;;;37.55;19.05;;;1.20;99.90;;;;;;5055025;28;20078;-69
2021/12/07 03:45:31;;;;;;;36.22;19.17;;;1.20;99.90;;;;;;5063459;28;20041;-67
2021/12/07 03:47:58;;;;;;;34.08;17.70;;;1.20;99.90;;;;;;5055582;28;20458;-69
2021/12/07 03:50:24;;;;;;;37.58;18.92;;;1.20;99.90;;;;;;5057786;28;20403;-68
2021/12/07 03:52:51;;;;;;;35.55;18.48;;;1.20;99.90;;;;;;5056790;28;20040;-68
2021/12/07 03:55:17;;;;;;;40.33;19.35;;;1.20;99.90;;;;;;5053842;28;20059;-67
2021/12/07 03:57:43;;;;;;;37.60;19.13;;;1.20;99.90;;;;;;5056952;28;20415;-67
2021/12/07 04:00:15;;;;;;;34.40;18.38;;;1.20;99.90;;;;;;5053873;28;20036;-66
2021/12/07 04:02:42;;;;;;;42.25;19.52;;;1.20;99.90;;;;;;5055211;28;20194;-67
2021/12/07 04:05:15;;;;;;;34.05;17.55;;;1.20;99.90;;;;;;5056302;28;20058;-67
2021/12/07 04:07:41;;;;;;;40.42;19.00;;;1.20;99.90;;;;;;5056586;28;20041;-68
2021/12/07 04:10:10;;;;;;;37.60;18.65;;;1.20;99.90;;;;;;5065579;28;20064;-67
2021/12/07 04:12:36;;;;;;;41.33;20.13;;;1.20;99.90;;;;;;5065335;28;20576;-69
2021/12/07 04:15:04;;;;;;;36.75;18.75;;;1.20;99.90;;;;;;5059985;28;20072;-69
2021/12/07 04:17:30;;;;;;;34.42;17.75;;;1.10;99.90;;;;;;5062005;28;20060;-68
2021/12/07 04:19:55;;;;;;;32.78;17.40;;;1.10;99.90;;;;;;5057641;28;20052;-66
2021/12/07 04:22:21;;;;;;;33.95;17.20;;;1.00;99.90;;;;;;5058403;28;20128;-67
2021/12/07 04:24:47;;;;;;;39.30;18.08;;;1.00;99.90;;;;;;5068727;28;20112;-68
2021/12/07 04:27:13;;;;;;;34.03;16.80;;;1.00;99.90;;;;;;5059368;28;20044;-69
2021/12/07 04:29:39;;;;;;;34.15;16.52;;;0.90;99.90;;;;;;5053289;28;20552;-68
2021/12/07 04:32:05;;;;;;;29.10;15.57;;;0.90;99.90;;;;;;5048861;28;20144;-68
2021/12/07 04:34:30;;;;;;;34.35;17.63;;;0.80;99.90;;;;;;5060188;28;20127;-67
2021/12/07 04:36:56;;;;;;;34.47;16.42;;;0.80;99.90;;;;;;5054581;28;20045;-66
2021/12/07 04:39:22;;;;;;;34.88;16.60;;;0.80;99.90;;;;;;5055160;28;20695;-66
2021/12/07 04:41:49;;;;;;;38.75;17.10;;;0.80;99.90;;;;;;5060027;28;20053;-67
2021/12/07 04:44:15;;;;;;;34.20;16.42;;;0.70;99.90;;;;;;5066953;28;20045;-68
2021/12/07 04:46:52;;;;;;;31.60;15.57;;;0.80;99.90;;;;;;5060086;28;20102;-67
2021/12/07 04:57:42;;;;;;;35.63;15.68;;;0.70;99.90;;;;;;5064074;28;20049;-67
2021/12/07 05:00:13;;;;;;;32.03;14.82;;;0.70;99.90;;;;;;5048127;28;20064;-67
2021/12/07 05:02:41;;;;;;;38.03;16.65;;;0.60;99.90;;;;;;5051864;28;20057;-67
2021/12/07 05:05:08;;;;;;;41.42;16.70;;;0.60;99.90;;;;;;5052491;28;20052;-67
2021/12/07 05:07:39;;;;;;;38.65;16.70;;;0.60;99.90;;;;;;5054418;28;20047;-68
2021/12/07 05:16:02;;;;;;;40.40;16.80;;;0.60;99.90;;;;;;5059604;28;20044;-68
2021/12/07 05:18:56;;;;;;;42.75;16.80;;;0.60;99.90;;;;;;5054487;28;20116;-68
2021/12/07 05:24:24;;;;;;;34.45;15.50;;;0.60;99.90;;;;;;5071381;28;20075;-67
2021/12/07 05:37:59;;;;;;;36.78;16.33;;;0.70;99.90;;;;;;5067918;28;20056;-68
2021/12/07 05:40:32;;;;;;;37.47;15.95;;;0.70;99.90;;;;;;5056682;28;20032;-67
2021/12/07 05:42:58;;;;;;;39.33;15.43;;;0.70;99.90;;;;;;5055907;28;20120;-68
2021/12/07 05:45:30;;;;;;;42.55;15.70;;;0.80;99.90;;;;;;5056237;28;20398;-67
2021/12/07 05:47:55;;;;;;;36.00;15.38;;;0.70;99.90;;;;;;5054970;28;20168;-67
2021/12/07 05:50:24;;;;;;;36.42;15.07;;;0.70;99.90;;;;;;5056234;28;20124;-66
2021/12/07 05:52:51;;;;;;;36.95;14.70;;;0.80;99.90;;;;;;5056108;28;20064;-67
2021/12/07 05:55:16;;;;;;;41.92;15.45;;;0.80;99.90;;;;;;5060759;28;20546;-67
2021/12/07 05:57:42;;;;;;;38.85;13.98;;;0.90;99.90;;;;;;5073127;28;20036;-66
2021/12/07 06:00:13;;;;;;;34.50;13.50;;;0.90;99.90;;;;;;5062087;28;20040;-67
2021/12/07 06:02:39;;;;;;;34.65;14.95;;;0.90;99.90;;;;;;5060186;28;20044;-67
2021/12/07 06:05:06;;;;;;;38.97;16.02;;;1.00;99.90;;;;;;5067266;28;20056;-67
2021/12/07 06:07:32;;;;;;;37.33;14.75;;;1.00;99.90;;;;;;5076135;28;20105;-67
2021/12/07 06:09:57;;;;;;;37.20;14.68;;;1.00;99.90;;;;;;5066448;28;20538;-67
2021/12/07 06:12:23;;;;;;;33.05;14.02;;;1.10;99.90;;;;;;5048171;28;20117;-68
2021/12/07 06:14:49;;;;;;;26.25;12.57;;;1.10;99.90;;;;;;5055679;28;20051;-67
2021/12/07 06:17:14;;;;;;;45.17;15.27;;;1.20;99.90;;;;;;5054907;28;20049;-67
2021/12/07 06:19:40;;;;;;;40.28;14.98;;;1.30;99.90;;;;;;5059618;28;20052;-67
2021/12/07 06:22:06;;;;;;;39.00;14.93;;;1.30;99.90;;;;;;5056835;28;20048;-68
2021/12/07 06:24:32;;;;;;;31.40;13.40;;;1.40;99.90;;;;;;5063711;28;20386;-69
2021/12/07 06:26:59;;;;;;;31.90;13.07;;;1.40;99.90;;;;;;5069549;28;20100;-66
2021/12/07 06:29:25;;;;;;;31.98;13.23;;;1.40;99.90;;;;;;5054375;28;20175;-66
2021/12/07 06:31:53;;;;;;;31.40;13.25;;;1.40;99.90;;;;;;5059911;28;20041;-67
2021/12/07 06:34:20;;;;;;;28.55;12.50;;;1.30;99.90;;;;;;5057353;28;20052;-66
2021/12/07 06:36:46;;;;;;;28.13;13.47;;;1.30;99.90;;;;;;5068047;28;20193;-67
2021/12/07 06:39:12;;;;;;;31.92;13.93;;;1.40;99.90;;;;;;5042866;28;20124;-68
2021/12/07 06:41:37;;;;;;;29.67;12.52;;;1.40;99.90;;;;;;5061320;28;20673;-68
2021/12/07 06:44:04;;;;;;;35.92;12.45;;;1.40;99.90;;;;;;5054402;28;20063;-67
2021/12/07 06:46:30;;;;;;;30.67;12.30;;;1.40;99.90;;;;;;5060938;28;20432;-68
2021/12/07 06:48:55;;;;;;;28.25;11.18;;;1.40;99.90;;;;;;5058882;28;20045;-68
2021/12/07 06:51:21;;;;;;;30.27;11.85;;;1.40;99.90;;;;;;5057592;28;20478;-67
2021/12/07 06:53:47;;;;;;;25.33;11.52;;;1.30;99.90;;;;;;5062639;28;20493;-67
2021/12/07 06:56:12;;;;;;;30.90;11.48;;;1.30;99.90;;;;;;5060728;28;20045;-68
2021/12/07 06:58:38;;;;;;;31.65;10.80;;;1.40;99.90;;;;;;5054243;28;20041;-68
2021/12/07 07:01:07;;;;;;;28.35;11.73;;;1.30;99.90;;;;;;5050994;28;20395;-68
2021/12/07 07:03:34;;;;;;;29.98;10.48;;;1.30;99.90;;;;;;5065195;28;20468;-68
2021/12/07 07:06:01;;;;;;;25.50;11.02;;;1.30;99.90;;;;;;5058732;28;20476;-68
2021/12/07 07:08:27;;;;;;;37.88;11.95;;;1.30;99.90;;;;;;5072217;28;20041;-67
2021/12/07 07:10:53;;;;;;;25.90;10.90;;;1.30;99.90;;;;;;5059278;28;20067;-67
2021/12/07 07:13:18;;;;;;;31.30;11.52;;;1.30;99.90;;;;;;5060121;28;20037;-67
2021/12/07 07:15:44;;;;;;;32.95;11.30;;;1.30;99.90;;;;;;5059225;28;20082;-67
2021/12/07 07:18:10;;;;;;;28.48;11.60;;;1.30;99.90;;;;;;5064060;28;20068;-66
2021/12/07 07:20:36;;;;;;;32.00;11.25;;;1.40;99.90;;;;;;5068545;28;20041;-66
2021/12/07 07:23:02;;;;;;;31.17;10.65;;;1.40;99.90;;;;;;5057827;28;20041;-66
2021/12/07 07:25:28;;;;;;;31.52;10.88;;;1.50;99.90;;;;;;5067793;28;20079;-67
2021/12/07 07:27:54;;;;;;;28.75;11.55;;;1.50;99.90;;;;;;5060979;28;20076;-67
2021/12/07 07:30:20;;;;;;;31.15;10.95;;;1.50;99.90;;;;;;5064219;28;20045;-67
2021/12/07 07:32:47;;;;;;;26.25;10.32;;;1.50;99.90;;;;;;5059329;28;20048;-66
2021/12/07 07:35:15;;;;;;;29.70;10.65;;;1.50;99.90;;;;;;5070152;28;20379;-67
2021/12/07 07:37:40;;;;;;;39.50;10.07;;;1.50;99.90;;;;;;5067543;28;20091;-66
2021/12/07 07:40:10;;;;;;;32.33;11.43;;;1.50;99.90;;;;;;5065432;28;20044;-68
2021/12/07 07:42:36;;;;;;;32.13;10.73;;;1.50;99.90;;;;;;5054522;28;20120;-67
2021/12/07 07:45:03;;;;;;;32.58;11.18;;;1.50;99.90;;;;;;5050883;28;20462;-67
2021/12/07 07:47:29;;;;;;;28.40;10.73;;;1.50;99.90;;;;;;5055643;28;20124;-66
2021/12/07 07:49:55;;;;;;;23.52;10.38;;;1.50;99.90;;;;;;5058544;28;20055;-68
2021/12/07 07:52:21;;;;;;;28.75;10.48;;;1.50;99.90;;;;;;5064665;28;20036;-68
2021/12/07 07:54:46;;;;;;;23.42;10.52;;;1.50;99.90;;;;;;5054099;28;20505;-67
2021/12/07 07:57:12;;;;;;;31.23;9.93;;;1.40;99.90;;;;;;5060585;28;20040;-67
2021/12/07 07:59:39;;;;;;;37.70;10.32;;;1.40;99.90;;;;;;5051371;28;20045;-67
2021/12/07 08:02:06;;;;;;;34.15;11.43;;;1.40;99.90;;;;;;5061268;28;20036;-67
2021/12/07 08:04:31;;;;;;;25.17;11.18;;;1.30;99.90;;;;;;5038431;28;20135;-67
2021/12/07 08:06:57;;;;;;;33.55;11.38;;;1.30;99.90;;;;;;5055101;28;20037;-68
2021/12/07 08:09:22;;;;;;;35.17;10.70;;;1.30;99.90;;;;;;5055536;28;20048;-66
2021/12/07 08:11:48;;;;;;;44.83;11.55;;;1.40;99.90;;;;;;5055396;28;20094;-68
2021/12/07 08:14:15;;;;;;;29.13;12.05;;;1.30;99.90;;;;;;5061690;28;20124;-67
2021/12/07 08:16:41;;;;;;;32.30;11.32;;;1.30;99.90;;;;;;5053367;28;20087;-67
2021/12/07 08:19:07;;;;;;;33.85;11.07;;;1.30;99.90;;;;;;5062595;28;20048;-67
2021/12/07 08:21:33;;;;;;;29.05;11.50;;;1.40;99.90;;;;;;5050260;28;20071;-67
2021/12/07 08:23:58;;;;;;;34.08;11.82;;;1.40;99.90;;;;;;5056184;28;20128;-68
2021/12/07 08:26:25;;;;;;;31.30;11.25;;;1.40;99.90;;;;;;5049303;28;20131;-67
2021/12/07 08:28:52;;;;;;;31.40;11.05;;;1.50;99.90;;;;;;5061160;28;20396;-66
2021/12/07 08:31:18;;;;;;;34.10;10.85;;;1.50;99.90;;;;;;5062195;28;20513;-67
2021/12/07 08:33:44;;;;;;;37.13;11.00;;;1.60;99.90;;;;;;5059589;28;20036;-68
2021/12/07 08:36:10;;;;;;;36.72;11.30;;;1.60;99.90;;;;;;5051624;28;20044;-68
2021/12/07 08:38:36;;;;;;;28.35;10.35;;;1.70;99.90;;;;;;5051187;28;20048;-67
2021/12/07 08:41:03;;;;;;;26.63;10.50;;;1.70;99.90;;;;;;5066618;28;20060;-68
2021/12/07 08:43:31;;;;;;;41.50;10.88;;;1.70;99.90;;;;;;5064248;28;20115;-67
2021/12/07 08:45:59;;;;;;;27.25;11.27;;;1.70;99.90;;;;;;5061771;28;20049;-68
2021/12/07 08:48:26;;;;;;;29.27;10.80;;;1.80;99.90;;;;;;5057693;28;20048;-67
2021/12/07 08:50:52;;;;;;;38.25;10.88;;;1.80;99.90;;;;;;5069832;28;20032;-67
2021/12/07 08:53:21;;;;;;;41.05;11.23;;;1.90;99.90;;;;;;5066063;28;20132;-68
2021/12/07 09:01:19;;;;;;;36.63;12.30;;;2.10;99.90;;;;;;5070135;28;20132;-68
2021/12/07 09:03:46;;;;;;;23.30;9.77;;;2.20;99.90;;;;;;5073675;28;20049;-67
2021/12/07 09:06:12;;;;;;;30.23;10.77;;;2.20;99.90;;;;;;5059065;28;20029;-67
2021/12/07 09:08:40;;;;;;;26.02;10.63;;;2.30;99.90;;;;;;5058118;28;20045;-67
2021/12/07 09:11:06;;;;;;;30.08;10.40;;;2.40;99.90;;;;;;5055257;28;20143;-67
2021/12/07 09:13:32;;;;;;;21.58;10.18;;;2.50;99.90;;;;;;5055476;28;20123;-66
2021/12/07 09:15:58;;;;;;;26.10;9.38;;;2.60;99.90;;;;;;5052560;28;20049;-66
2021/12/07 09:18:25;;;;;;;31.65;9.20;;;2.80;99.90;;;;;;5072532;28;20501;-66
2021/12/07 09:20:51;;;;;;;22.15;8.02;;;3.00;99.90;;;;;;5061880;28;20044;-66
2021/12/07 09:23:17;;;;;;;20.42;7.53;;;3.20;99.90;;;;;;5060333;28;20040;-67
2021/12/07 09:25:43;;;;;;;16.45;6.90;;;3.30;99.90;;;;;;5059256;28;20041;-67
2021/12/07 09:28:10;;;;;;;18.60;7.30;;;3.40;99.90;;;;;;5068107;28;20050;-68
2021/12/07 09:30:36;;;;;;;17.50;6.15;;;3.50;99.90;;;;;;5065842;28;20047;-67
2021/12/07 09:33:02;;;;;;;21.80;6.43;;;3.70;99.90;;;;;;5064517;28;20115;-67
2021/12/07 09:35:27;;;;;;;23.42;7.13;;;4.00;99.90;;;;;;5053288;28;20041;-67
2021/12/07 09:37:54;;;;;;;16.40;6.55;;;4.30;99.90;;;;;;5058273;28;20093;-68
2021/12/07 09:40:23;;;;;;;18.55;5.18;;;4.60;99.90;;;;;;5070388;28;20047;-67
2021/12/07 09:42:49;;;;;;;16.95;5.72;;;4.90;99.90;;;;;;5058097;28;20049;-65
2021/12/07 09:45:16;;;;;;;16.15;5.97;;;5.20;99.90;;;;;;5053296;28;20608;-66
2021/12/07 09:47:42;;;;;;;15.93;5.07;;;5.40;99.90;;;;;;5054154;28;20086;-67
2021/12/07 09:50:11;;;;;;;14.93;5.20;;;5.50;99.90;;;;;;5056398;28;20037;-67
2021/12/07 09:52:36;;;;;;;;;;;5.70;99.90;;;;;;5062582;28;20052;-67
2021/12/07 09:55:03;;;;;;;12.48;5.18;;;5.80;99.90;;;;;;5056126;28;19921;-66
2021/12/07 09:57:29;;;;;;;11.75;4.28;;;5.90;99.90;;;;;;5067017;28;20041;-67
2021/12/07 09:59:55;;;;;;;18.45;4.93;;;5.80;99.90;;;;;;5065248;28;20604;-67
2021/12/07 10:02:21;;;;;;;12.10;4.60;;;5.60;99.90;;;;;;5058674;28;20051;-65
2021/12/07 10:04:47;;;;;;;15.25;5.47;;;5.40;99.90;;;;;;5055032;28;20051;-67
2021/12/07 10:07:12;;;;;;;20.45;6.05;;;5.20;99.90;;;;;;5065179;28;20085;-66
2021/12/07 10:09:38;;;;;;;18.35;5.50;;;5.20;99.90;;;;;;5065545;28;20185;-67
2021/12/07 10:12:05;;;;;;;21.52;6.28;;;5.00;99.90;;;;;;5063536;28;20048;-67
2021/12/07 10:14:42;;;;;;;16.27;6.10;;;4.80;99.90;;;;;;5069007;28;20515;-67
2021/12/07 10:17:10;;;;;;;26.50;6.03;;;4.70;99.90;;;;;;5051996;28;20057;-67
2021/12/07 10:19:38;;;;;;;19.33;5.80;;;4.60;99.90;;;;;;5070049;28;20431;-67
2021/12/07 10:22:10;;;;;;;15.68;5.55;;;4.50;99.90;;;;;;5063304;28;20044;-67
2021/12/07 10:24:46;;;;;;;15.98;5.05;;;4.40;99.90;;;;;;5074099;28;20089;-65
2021/12/07 10:27:12;;;;;;;17.58;5.65;;;4.30;99.90;;;;;;5063861;28;20040;-66
2021/12/07 10:29:39;;;;;;;13.38;5.38;;;4.20;99.90;;;;;;5058271;28;20094;-67
2021/12/07 10:32:07;;;;;;;13.07;5.47;;;4.20;99.90;;;;;;5068199;28;20060;-67
2021/12/07 10:34:37;;;;;;;22.98;6.18;;;4.20;99.90;;;;;;5055330;28;20048;-68
2021/12/07 10:37:14;;;;;;;14.32;5.30;;;4.10;99.90;;;;;;5071401;28;20059;-67
2021/12/07 10:39:49;;;;;;;22.63;6.63;;;4.20;99.90;;;;;;5062435;28;20048;-67
2021/12/07 10:42:22;;;;;;;17.65;6.53;;;4.20;99.90;;;;;;5060377;28;20097;-66
2021/12/07 10:44:48;;;;;;;13.90;5.35;;;4.20;99.90;;;;;;5062439;28;20051;-66
2021/12/07 10:47:19;;;;;;;24.70;7.25;;;4.20;99.90;;;;;;5056478;28;20044;-66
2021/12/07 10:50:00;;;;;;;27.20;7.05;;;4.30;99.90;;;;;;5054332;28;20739;-66
2021/12/07 10:52:30;;;;;;;21.63;5.55;;;4.40;99.90;;;;;;5058207;28;20071;-65
2021/12/07 10:55:19;;;;;;;19.90;5.75;;;4.40;99.90;;;;;;5063589;28;20424;-66
2021/12/07 10:57:52;;;;;;;15.27;5.47;;;4.50;99.90;;;;;;5052193;28;20048;-66
2021/12/07 11:00:40;;;;;;;15.85;5.93;;;4.50;99.90;;;;;;5060031;28;20061;-66
2021/12/07 11:03:22;;;;;;;12.32;5.38;;;4.60;99.90;;;;;;5071928;28;20490;-66
2021/12/07 11:05:51;;;;;;;13.10;5.10;;;4.60;99.90;;;;;;5059996;28;20123;-66
2021/12/07 11:08:19;;;;;;;21.38;6.03;;;4.90;99.90;;;;;;5065788;28;20495;-66
2021/12/07 11:10:48;;;;;;;13.23;5.60;;;4.60;99.90;;;;;;5067676;28;20120;-66
2021/12/07 11:13:22;;;;;;;25.98;5.75;;;4.50;99.90;;;;;;5053553;28;20072;-66
2021/12/07 11:15:55;;;;;;;21.23;5.72;;;4.50;99.90;;;;;;5056132;28;20060;-66
2021/12/07 11:18:30;;;;;;;22.55;6.00;;;4.50;99.90;;;;;;5062712;28;20842;-65
2021/12/07 11:21:01;;;;;;;24.23;6.32;;;4.50;99.90;;;;;;5057045;28;20115;-66
2021/12/07 11:23:33;;;;;;;16.65;6.03;;;4.40;99.90;;;;;;5070388;28;21328;-65
2021/12/07 11:31:28;;;;;;;21.15;6.90;;;4.60;99.90;;;;;;5069375;28;20048;-67
2021/12/07 11:34:12;;;;;;;21.55;6.70;;;4.40;99.90;;;;;;5061103;28;20093;-67
2021/12/07 11:36:40;;;;;;;17.42;6.05;;;4.40;99.90;;;;;;5067933;28;20516;-65
2021/12/07 11:39:29;;;;;;;22.48;6.25;;;4.40;99.90;;;;;;5069417;28;20084;-66
2021/12/07 11:42:00;;;;;;;23.07;6.67;;;4.40;99.90;;;;;;5065410;28;20064;-66
2021/12/07 11:44:27;;;;;;;23.08;6.05;;;4.40;99.90;;;;;;5055618;28;20039;-67
2021/12/07 11:46:53;;;;;;;15.90;5.47;;;4.40;99.90;;;;;;5061979;28;20147;-66
2021/12/07 11:49:23;;;;;;;13.18;5.72;;;4.40;99.90;;;;;;5048362;28;20399;-65
2021/12/07 11:51:52;;;;;;;20.83;5.18;;;4.40;99.90;;;;;;5066302;28;20138;-66
2021/12/07 11:54:27;;;;;;;22.63;5.88;;;5.10;99.90;;;;;;5070256;28;20490;-66
2021/12/07 11:56:54;;;;;;;20.00;6.25;;;4.50;99.90;;;;;;5065495;28;20041;-65
2021/12/07 11:59:20;;;;;;;17.70;5.85;;;4.50;99.90;;;;;;5063932;28;20040;-67
2021/12/07 12:01:48;;;;;;;31.25;7.10;;;4.50;99.90;;;;;;5051188;28;20110;-67
2021/12/07 12:04:17;;;;;;;23.58;6.03;;;4.50;99.90;;;;;;5050801;28;20044;-67
2021/12/07 12:06:47;;;;;;;26.58;6.60;;;4.50;99.90;;;;;;5051599;28;20398;-66
2021/12/07 12:09:12;;;;;;;14.65;5.72;;;4.50;99.90;;;;;;5069604;28;20505;-66
2021/12/07 12:12:01;;;;;;;19.75;6.85;;;4.50;99.90;;;;;;5056660;28;20051;-68
2021/12/07 12:14:46;;;;;;;20.80;5.65;;;4.60;99.90;;;;;;5070969;28;20075;-66
2021/12/07 12:17:38;;;;;;;20.08;5.00;;;4.60;99.90;;;;;;5053775;28;20495;-67
2021/12/07 12:20:38;;;;;;;17.80;5.97;;;4.70;99.90;;;;;;5052596;28;20037;-67
2021/12/07 12:23:23;;;;;;;;;;;4.70;99.90;;;;;;5062795;28;20087;-67
2021/12/07 12:25:57;;;;;;;17.35;5.40;;;4.70;99.90;;;;;;5062897;28;19924;-67
2021/12/07 12:28:34;;;;;;;16.13;5.03;;;4.70;99.90;;;;;;5065987;28;20510;-68
2021/12/07 12:31:00;;;;;;;21.02;5.45;;;4.80;99.90;;;;;;5083798;28;20043;-66
2021/12/07 12:33:25;;;;;;;16.67;5.97;;;4.80;99.90;;;;;;5065071;28;20393;-66
2021/12/07 12:35:54;;;;;;;16.83;4.90;;;4.80;99.90;;;;;;5070411;28;20167;-66
2021/12/07 12:38:23;;;;;;;16.88;4.82;;;5.90;99.90;;;;;;5062556;28;20140;-66
2021/12/07 12:40:56;;;;;;;21.25;5.20;;;4.80;99.90;;;;;;5069007;28;20082;-66
2021/12/07 12:43:46;;;;;;;17.35;5.78;;;4.90;99.90;;;;;;5067066;28;20115;-66
2021/12/07 12:46:15;;;;;;;16.70;5.30;;;4.80;99.90;;;;;;5066941;28;20076;-65
2021/12/07 12:48:49;;;;;;;18.15;5.68;;;4.80;99.90;;;;;;5054562;28;20055;-66
2021/12/07 12:51:16;;;;;;;17.70;4.85;;;4.90;99.90;;;;;;5058028;28;20068;-66
2021/12/07 12:53:44;;;;;;;13.88;4.65;;;4.80;99.90;;;;;;5061170;28;20048;-66
2021/12/07 12:56:13;;;;;;;14.55;4.93;;;4.80;99.90;;;;;;5039846;28;20049;-66
2021/12/07 12:58:55;;;;;;;10.23;4.20;;;4.80;99.90;;;;;;5067894;28;20052;-67
2021/12/07 13:01:32;;;;;;;19.27;4.43;;;4.80;99.90;;;;;;5076426;28;20083;-67
2021/12/07 13:04:02;;;;;;;23.80;4.75;;;4.80;99.90;;;;;;5071348;28;20048;-67
2021/12/07 13:06:31;;;;;;;18.90;5.07;;;4.80;99.90;;;;;;5066660;28;20132;-67
2021/12/07 13:09:02;;;;;;;18.00;4.82;;;4.80;99.90;;;;;;5073252;28;20513;-68
2021/12/07 13:11:41;;;;;;;16.52;4.28;;;4.90;99.90;;;;;;5061411;28;20110;-66
2021/12/07 13:14:12;;;;;;;19.90;4.70;;;4.90;99.90;;;;;;5059679;28;20506;-66
2021/12/07 13:16:46;;;;;;;16.63;4.82;;;4.90;99.90;;;;;;5061895;28;20088;-66
2021/12/07 13:19:12;;;;;;;16.15;4.80;;;4.90;99.90;;;;;;5065375;28;20040;-66
2021/12/07 13:21:40;;;;;;;14.20;4.65;;;4.90;99.90;;;;;;5056355;28;20040;-66
2021/12/07 13:24:11;;;;;;;29.42;5.68;;;4.90;99.90;;;;;;5072745;28;20123;-66
2021/12/07 13:26:39;;;;;;;16.48;5.80;;;4.90;99.90;;;;;;5072947;28;20063;-67
2021/12/07 13:29:11;;;;;;;23.38;6.07;;;4.90;99.90;;;;;;5060288;28;20052;-67
2021/12/07 13:31:41;;;;;;;20.67;5.20;;;4.90;99.90;;;;;;5050708;28;20139;-67
2021/12/07 13:34:08;;;;;;;16.23;5.65;;;4.90;99.90;;;;;;5052220;28;20049;-67
2021/12/07 13:36:53;;;;;;;21.05;5.18;;;4.90;99.90;;;;;;5065572;28;20045;-66
2021/12/07 13:39:19;;;;;;;19.95;5.35;;;4.90;99.90;;;;;;5063553;28;20083;-65
2021/12/07 13:42:00;;;;;;;14.68;6.13;;;4.90;99.90;;;;;;5063290;28;20121;-66
2021/12/07 13:44:31;;;;;;;34.97;6.30;;;4.90;99.90;;;;;;5053693;28;20049;-66
2021/12/07 13:47:07;;;;;;;14.15;5.65;;;5.20;99.90;;;;;;5058638;28;20036;-67
2021/12/07 13:49:34;;;;;;;20.15;6.05;;;4.90;99.90;;;;;;5055546;28;20041;-67
2021/12/07 13:52:07;;;;;;;17.30;5.95;;;4.90;99.90;;;;;;5062230;28;20091;-67
2021/12/07 13:54:40;;;;;;;18.55;5.55;;;4.90;99.90;;;;;;5065710;28;20045;-67
2021/12/07 13:57:06;;;;;;;21.90;5.50;;;4.90;99.90;;;;;;5059042;28;20056;-67
2021/12/07 13:59:32;;;;;;;25.27;6.32;;;4.90;99.90;;;;;;5056293;28;20431;-67
2021/12/07 14:01:59;;;;;;;17.98;5.53;;;4.90;99.90;;;;;;5060904;28;20398;-67
2021/12/07 14:04:29;;;;;;;23.27;6.00;;;4.90;99.90;;;;;;5055948;28;20049;-65
2021/12/07 14:06:56;;;;;;;15.75;5.70;;;4.80;99.90;;;;;;5063740;28;20035;-68
2021/12/07 14:09:22;;;;;;;19.05;6.53;;;4.80;99.90;;;;;;5057644;28;20049;-67
2021/12/07 14:11:56;;;;;;;18.50;6.25;;;4.80;99.90;;;;;;5054584;28;20044;-66
2021/12/07 14:14:22;;;;;;;21.48;6.03;;;4.70;99.90;;;;;;5052931;28;20090;-67
2021/12/07 14:16:48;;;;;;;19.98;5.78;;;4.70;99.90;;;;;;5056448;28;20398;-67
2021/12/07 14:19:15;;;;;;;21.45;6.78;;;4.60;99.90;;;;;;5067054;28;20052;-67
2021/12/07 14:21:43;;;;;;;22.05;7.55;;;4.60;99.90;;;;;;5059221;28;20040;-66